createdAt,value
2018-12-27T00:02:08.540Z,17.67
2018-12-27T00:04:36.946Z,17.23
2018-12-27T00:07:05.498Z,16.67
2018-12-27T00:09:33.867Z,15.97
2018-12-27T00:12:02.273Z,16.87
2018-12-27T00:14:30.650Z,16.87
2018-12-27T00:16:59.054Z,16.67
2018-12-27T00:19:27.450Z,15.77
2018-12-27T00:21:55.846Z,16.53
2018-12-27T00:24:24.218Z,16.90
2018-12-27T00:26:52.542Z,16.33
2018-12-27T00:29:20.854Z,16.10
2018-12-27T00:31:49.590Z,16.27
2018-12-27T00:34:18.302Z,15.23
2018-12-27T00:36:47.042Z,17.27
2018-12-27T00:39:15.682Z,17.10
2018-12-27T00:41:44.430Z,17.53
2018-12-27T00:44:13.134Z,16.30
2018-12-27T00:46:41.846Z,15.83
2018-12-27T00:49:10.519Z,15.37
2018-12-27T00:51:39.230Z,15.90
2018-12-27T00:54:07.979Z,16.40
2018-12-27T00:56:36.707Z,16.73
2018-12-27T00:59:05.441Z,15.87
2018-12-27T01:01:34.078Z,16.03
2018-12-27T01:04:02.751Z,14.77
2018-12-27T01:06:31.458Z,16.20
2018-12-27T01:09:00.192Z,15.40
2018-12-27T01:11:28.861Z,16.10
2018-12-27T01:13:57.534Z,16.23
2018-12-27T01:16:26.236Z,15.13
2018-12-27T01:18:54.898Z,14.53
2018-12-27T01:21:23.620Z,13.83
2018-12-27T01:23:52.354Z,15.37
2018-12-27T01:26:21.168Z,15.20
2018-12-27T01:28:49.902Z,14.37
2018-12-27T01:31:18.543Z,14.63
2018-12-27T01:33:47.278Z,13.93
2018-12-27T01:36:15.933Z,14.33
2018-12-27T01:38:44.670Z,14.97
2018-12-27T01:41:13.302Z,13.77
2018-12-27T01:43:41.966Z,13.03
2018-12-27T01:46:10.598Z,12.80
2018-12-27T01:48:39.262Z,12.57
2018-12-27T01:51:07.978Z,14.57
2018-12-27T01:53:36.728Z,13.63
2018-12-27T01:56:05.507Z,12.73
2018-12-27T01:58:34.251Z,14.07
2018-12-27T02:01:02.958Z,13.10
2018-12-27T02:03:31.614Z,12.77
2018-12-27T02:06:00.322Z,13.73
2018-12-27T02:08:28.995Z,13.10
2018-12-27T02:10:57.706Z,13.47
2018-12-27T02:13:26.346Z,12.87
2018-12-27T02:15:55.078Z,12.57
2018-12-27T02:18:23.710Z,13.27
2018-12-27T02:20:52.382Z,12.63
2018-12-27T02:23:21.091Z,12.80
2018-12-27T02:25:49.830Z,12.33
2018-12-27T02:28:18.542Z,11.80
2018-12-27T02:30:47.283Z,12.63
2018-12-27T02:33:15.994Z,12.67
2018-12-27T02:35:44.736Z,12.17
2018-12-27T02:38:13.452Z,11.97
2018-12-27T02:40:42.195Z,12.20
2018-12-27T02:43:10.911Z,12.47
2018-12-27T02:45:39.653Z,12.30
2018-12-27T02:48:08.306Z,11.83
2018-12-27T02:50:36.966Z,12.43
2018-12-27T02:53:05.604Z,11.57
2018-12-27T02:55:34.338Z,11.90
2018-12-27T02:58:02.975Z,12.03
2018-12-27T03:00:31.758Z,11.50
2018-12-27T03:03:00.519Z,11.07
2018-12-27T03:05:29.226Z,11.67
2018-12-27T03:07:57.889Z,12.17
2018-12-27T03:10:26.603Z,11.77
2018-12-27T03:12:55.335Z,11.30
2018-12-27T03:15:23.966Z,11.53
2018-12-27T03:17:52.716Z,10.83
2018-12-27T03:20:21.353Z,11.33
2018-12-27T03:22:50.023Z,10.53
2018-12-27T03:25:18.721Z,10.67
2018-12-27T03:27:47.561Z,10.60
2018-12-27T03:30:16.203Z,10.13
2018-12-27T03:32:44.946Z,10.33
2018-12-27T03:35:13.650Z,10.53
2018-12-27T03:37:42.393Z,10.20
2018-12-27T03:40:11.111Z,10.23
2018-12-27T03:42:39.853Z,9.70
2018-12-27T03:45:08.549Z,10.00
2018-12-27T03:47:37.281Z,10.40
2018-12-27T03:50:05.993Z,9.93
2018-12-27T03:52:34.729Z,10.73
2018-12-27T03:55:03.430Z,9.50
2018-12-27T03:57:32.174Z,9.90
2018-12-27T04:00:00.882Z,10.10
2018-12-27T04:02:29.625Z,10.37
2018-12-27T04:04:58.329Z,9.60
2018-12-27T04:07:27.003Z,10.33
2018-12-27T04:09:55.794Z,10.17
2018-12-27T04:12:24.569Z,9.90
2018-12-27T04:14:53.286Z,10.60
2018-12-27T04:17:21.681Z,10.37
2018-12-27T04:19:50.058Z,9.50
2018-12-27T04:22:18.450Z,9.63
2018-12-27T04:24:46.743Z,9.80
2018-12-27T04:27:15.148Z,9.93
2018-12-27T04:29:43.594Z,10.00
2018-12-27T04:32:11.972Z,10.40
2018-12-27T04:34:40.369Z,9.80
2018-12-27T04:37:08.667Z,10.27
2018-12-27T04:39:37.070Z,10.57
2018-12-27T04:42:05.450Z,10.10
2018-12-27T04:44:33.849Z,9.37
2018-12-27T04:47:02.161Z,10.20
2018-12-27T04:49:30.565Z,10.07
2018-12-27T04:51:58.946Z,10.00
2018-12-27T04:54:27.343Z,9.90
2018-12-27T04:56:55.785Z,10.40
2018-12-27T04:59:24.178Z,9.47
2018-12-27T05:01:52.609Z,9.83
2018-12-27T05:04:21.013Z,10.27
2018-12-27T05:06:49.388Z,10.83
2018-12-27T05:09:17.929Z,10.50
2018-12-27T05:11:46.253Z,10.63
2018-12-27T05:14:14.585Z,10.33
2018-12-27T05:16:42.957Z,12.00
2018-12-27T05:19:11.365Z,11.27
2018-12-27T05:21:39.669Z,11.27
2018-12-27T05:24:08.082Z,12.10
2018-12-27T05:26:36.469Z,11.87
2018-12-27T05:29:04.861Z,10.80
2018-12-27T05:31:33.237Z,11.30
2018-12-27T05:34:01.653Z,11.10
2018-12-27T05:36:30.034Z,11.53
2018-12-27T05:38:58.423Z,9.97
2018-12-27T05:41:26.718Z,11.77
2018-12-27T05:43:55.042Z,10.60
2018-12-27T05:46:23.341Z,10.80
2018-12-27T05:48:51.677Z,10.47
2018-12-27T05:51:20.058Z,10.67
2018-12-27T05:53:48.437Z,10.20
2018-12-27T05:56:16.851Z,11.00
2018-12-27T05:58:45.237Z,10.30
2018-12-27T06:01:13.649Z,10.80
2018-12-27T06:03:42.027Z,10.47
2018-12-27T06:06:10.477Z,10.73
2018-12-27T06:08:38.845Z,11.43
2018-12-27T06:11:07.161Z,10.93
2018-12-27T06:13:35.533Z,9.97
2018-12-27T06:16:04.297Z,10.30
2018-12-27T06:18:32.595Z,9.73
2018-12-27T06:21:00.994Z,10.43
2018-12-27T06:23:29.366Z,9.87
2018-12-27T06:25:57.698Z,9.37
2018-12-27T06:28:26.158Z,10.63
2018-12-27T06:30:54.551Z,9.67
2018-12-27T06:33:22.926Z,10.80
2018-12-27T06:35:51.262Z,10.23
2018-12-27T06:38:19.666Z,10.53
2018-12-27T06:40:48.074Z,11.03
2018-12-27T06:43:16.744Z,9.97
2018-12-27T06:45:45.118Z,10.20
2018-12-27T06:48:13.495Z,9.90
2018-12-27T06:50:41.898Z,9.77
2018-12-27T06:53:10.203Z,9.73
2018-12-27T06:55:38.562Z,10.30
2018-12-27T06:58:07.001Z,10.27
2018-12-27T07:00:35.354Z,10.53
2018-12-27T07:03:03.689Z,10.40
2018-12-27T07:05:31.994Z,9.67
2018-12-27T07:08:00.398Z,10.17
2018-12-27T07:10:28.770Z,10.20
2018-12-27T07:12:57.170Z,10.13
2018-12-27T07:15:25.546Z,10.87
2018-12-27T07:17:53.954Z,10.37
2018-12-27T07:20:22.255Z,10.73
2018-12-27T07:22:50.658Z,10.43
2018-12-27T07:25:18.954Z,10.73
2018-12-27T07:27:47.326Z,10.83
2018-12-27T07:30:15.734Z,9.33
2018-12-27T07:32:44.102Z,11.03
2018-12-27T07:35:12.513Z,10.17
2018-12-27T07:37:40.882Z,10.00
2018-12-27T07:40:09.215Z,10.80
2018-12-27T07:42:37.505Z,9.83
2018-12-27T07:45:05.838Z,10.40
2018-12-27T07:47:34.215Z,10.47
2018-12-27T07:50:02.594Z,10.73
2018-12-27T07:52:31.000Z,10.37
2018-12-27T07:54:59.370Z,10.43
2018-12-27T07:57:27.784Z,10.03
2018-12-27T07:59:56.150Z,10.30
2018-12-27T08:02:24.552Z,9.83
2018-12-27T08:04:52.919Z,9.50
2018-12-27T08:07:21.326Z,10.30
2018-12-27T08:09:49.623Z,11.57
2018-12-27T08:12:18.029Z,10.43
2018-12-27T08:14:46.326Z,10.43
2018-12-27T08:17:14.822Z,9.90
2018-12-27T08:19:43.189Z,9.63
2018-12-27T08:22:11.481Z,9.03
2018-12-27T08:24:39.884Z,8.83
2018-12-27T08:27:08.250Z,9.17
2018-12-27T08:29:36.649Z,8.67
2018-12-27T08:32:04.958Z,9.30
2018-12-27T08:34:33.358Z,9.37
2018-12-27T08:37:01.740Z,9.37
2018-12-27T08:39:30.130Z,9.73
2018-12-27T08:41:58.594Z,9.00
2018-12-27T08:44:26.996Z,10.53
2018-12-27T08:46:55.388Z,10.47
2018-12-27T08:49:23.786Z,10.17
2018-12-27T08:51:52.090Z,10.60
2018-12-27T08:54:20.502Z,11.60
2018-12-27T08:56:48.808Z,10.73
2018-12-27T08:59:17.206Z,11.37
2018-12-27T09:01:45.505Z,11.57
2018-12-27T09:04:13.876Z,11.57
2018-12-27T09:06:42.294Z,10.93
2018-12-27T09:09:10.650Z,9.67
2018-12-27T09:11:39.086Z,9.53
2018-12-27T09:14:07.471Z,8.03
2018-12-27T09:16:35.876Z,7.93
2018-12-27T09:19:04.242Z,6.73
2018-12-27T09:21:32.649Z,5.33
2018-12-27T09:24:00.942Z,6.00
2018-12-27T09:26:29.249Z,5.27
2018-12-27T09:28:57.653Z,5.50
2018-12-27T09:31:26.059Z,5.77
2018-12-27T09:33:54.599Z,5.80
2018-12-27T09:36:23.220Z,5.37
2018-12-27T09:38:51.587Z,5.23
2018-12-27T09:41:19.968Z,5.77
2018-12-27T09:43:48.362Z,5.60
2018-12-27T09:46:16.850Z,4.77
2018-12-27T09:48:45.203Z,4.70
2018-12-27T09:51:13.606Z,5.30
2018-12-27T09:53:41.981Z,5.07
2018-12-27T09:56:10.382Z,4.83
2018-12-27T09:58:38.745Z,4.57
2018-12-27T10:01:07.154Z,4.77
2018-12-27T10:03:35.517Z,4.53
2018-12-27T10:06:04.652Z,4.20
2018-12-27T10:08:33.104Z,4.30
2018-12-27T10:11:01.526Z,4.47
2018-12-27T10:13:29.926Z,4.80
2018-12-27T10:15:58.326Z,4.60
2018-12-27T10:18:26.698Z,4.50
2018-12-27T10:20:55.101Z,4.60
2018-12-27T10:23:23.480Z,4.57
2018-12-27T10:25:51.878Z,4.70
2018-12-27T10:28:20.242Z,5.10
2018-12-27T10:30:48.638Z,4.50
2018-12-27T10:33:16.998Z,4.67
2018-12-27T10:35:45.394Z,5.10
2018-12-27T10:38:13.830Z,4.93
2018-12-27T10:40:42.229Z,4.90
2018-12-27T10:43:10.598Z,4.80
2018-12-27T10:45:39.006Z,4.70
2018-12-27T10:48:07.422Z,4.90
2018-12-27T10:50:35.792Z,5.30
2018-12-27T10:53:04.189Z,4.57
2018-12-27T10:55:32.562Z,5.10
2018-12-27T10:58:00.976Z,4.93
2018-12-27T11:00:29.343Z,5.20
2018-12-27T11:02:57.745Z,4.87
2018-12-27T11:05:26.127Z,5.00
2018-12-27T11:07:54.542Z,5.20
2018-12-27T11:10:22.902Z,4.63
2018-12-27T11:12:51.312Z,4.83
2018-12-27T11:15:19.699Z,5.05
2018-12-27T11:17:48.116Z,5.00
2018-12-27T11:20:16.490Z,5.22
2018-12-27T11:22:44.890Z,4.47
2018-12-27T11:25:13.282Z,4.60
2018-12-27T11:27:41.614Z,4.60
2018-12-27T11:30:10.000Z,4.60
2018-12-27T11:32:38.370Z,4.65
2018-12-27T11:35:06.774Z,5.35
2018-12-27T11:37:35.150Z,5.70
2018-12-27T11:40:04.038Z,5.05
2018-12-27T11:42:32.434Z,4.90
2018-12-27T11:45:00.846Z,4.95
2018-12-27T11:47:29.150Z,5.37
2018-12-27T11:49:57.478Z,5.20
2018-12-27T11:52:26.652Z,5.08
2018-12-27T11:54:55.462Z,4.90
2018-12-27T11:57:23.836Z,4.78
2018-12-27T11:59:52.130Z,4.80
2018-12-27T12:02:20.538Z,4.63
2018-12-27T12:04:48.912Z,5.00
2018-12-27T12:07:17.327Z,5.70
2018-12-27T12:09:45.760Z,5.20
2018-12-27T12:12:14.239Z,5.17
2018-12-27T12:14:42.538Z,5.80
2018-12-27T12:17:10.865Z,5.13
2018-12-27T12:19:39.238Z,4.85
2018-12-27T12:22:07.654Z,5.33
2018-12-27T12:24:36.021Z,5.17
2018-12-27T12:27:04.454Z,5.42
2018-12-27T12:29:32.774Z,5.40
2018-12-27T12:32:01.245Z,4.87
2018-12-27T12:34:29.649Z,4.90
2018-12-27T12:36:58.019Z,5.17
2018-12-27T12:39:26.425Z,5.47
2018-12-27T12:41:54.795Z,5.78
2018-12-27T12:44:23.196Z,5.55
2018-12-27T12:46:53.122Z,4.85
2018-12-27T12:49:21.590Z,4.45
2018-12-27T12:51:49.971Z,4.65
2018-12-27T12:54:18.373Z,4.85
2018-12-27T12:56:46.742Z,5.20
2018-12-27T12:59:15.147Z,5.00
2018-12-27T13:01:43.519Z,4.92
2018-12-27T13:04:11.942Z,5.75
2018-12-27T13:06:40.309Z,5.03
2018-12-27T13:09:08.704Z,5.40
2018-12-27T13:11:37.076Z,5.27
2018-12-27T13:14:05.481Z,5.13
2018-12-27T13:16:33.865Z,6.00
2018-12-27T13:19:02.271Z,5.17
2018-12-27T13:21:30.655Z,4.53
2018-12-27T13:23:59.059Z,4.73
2018-12-27T13:26:27.429Z,6.43
2018-12-27T13:28:55.768Z,6.13
2018-12-27T13:31:24.208Z,6.57
2018-12-27T13:33:52.551Z,6.03
2018-12-27T13:36:25.367Z,5.70
2018-12-27T13:38:50.946Z,5.30
2018-12-27T13:41:19.454Z,5.20
2018-12-27T13:43:47.892Z,4.77
2018-12-27T13:46:16.291Z,4.83
2018-12-27T13:48:44.745Z,4.70
2018-12-27T13:51:13.151Z,4.20
2018-12-27T13:53:41.520Z,4.47
2018-12-27T13:56:09.913Z,4.90
2018-12-27T13:58:39.205Z,4.50
2018-12-27T14:01:07.597Z,4.57
2018-12-27T14:03:35.989Z,4.33
2018-12-27T14:06:04.390Z,4.30
2018-12-27T14:08:32.774Z,4.30
2018-12-27T14:11:01.185Z,4.67
2018-12-27T14:13:29.563Z,4.77
2018-12-27T14:15:57.969Z,4.80
2018-12-27T14:18:26.381Z,4.67
2018-12-27T14:20:54.795Z,4.53
2018-12-27T14:23:23.173Z,5.43
2018-12-27T14:25:51.577Z,5.40
2018-12-27T14:28:19.933Z,4.50
2018-12-27T14:30:48.430Z,4.23
2018-12-27T14:33:16.729Z,4.70
2018-12-27T14:35:45.140Z,5.07
2018-12-27T14:38:13.525Z,4.77
2018-12-27T14:40:41.845Z,5.53
2018-12-27T14:43:10.141Z,5.20
2018-12-27T14:45:38.437Z,5.57
2018-12-27T14:48:06.770Z,5.73
2018-12-27T14:50:35.224Z,6.07
2018-12-27T14:53:03.626Z,6.83
2018-12-27T14:55:32.049Z,6.93
2018-12-27T14:58:00.464Z,7.30
2018-12-27T15:00:28.834Z,6.33
2018-12-27T15:02:57.242Z,5.67
2018-12-27T15:05:25.618Z,5.60
2018-12-27T15:07:54.009Z,5.33
2018-12-27T15:10:22.307Z,5.47
2018-12-27T15:12:50.661Z,5.40
2018-12-27T15:15:18.966Z,6.13
2018-12-27T15:17:47.371Z,6.07
2018-12-27T15:20:15.823Z,6.10
2018-12-27T15:22:44.223Z,5.80
2018-12-27T15:25:12.595Z,6.27
2018-12-27T15:27:40.994Z,5.90
2018-12-27T15:30:09.370Z,5.90
2018-12-27T15:32:37.915Z,5.73
2018-12-27T15:35:06.287Z,5.60
2018-12-27T15:37:34.749Z,5.50
2018-12-27T15:40:03.209Z,5.33
2018-12-27T15:42:31.601Z,6.20
2018-12-27T15:44:59.975Z,5.50
2018-12-27T15:47:28.380Z,5.93
2018-12-27T15:49:56.749Z,5.87
2018-12-27T15:52:25.159Z,6.37
2018-12-27T15:54:53.531Z,6.50
2018-12-27T15:57:21.981Z,6.70
2018-12-27T15:59:50.433Z,7.33
2018-12-27T16:02:18.838Z,8.53
2018-12-27T16:04:47.209Z,8.40
2018-12-27T16:07:15.578Z,7.97
2018-12-27T16:09:43.978Z,7.90
2018-12-27T16:12:12.357Z,7.80
2018-12-27T16:14:44.435Z,8.03
2018-12-27T16:17:10.855Z,7.97
2018-12-27T16:19:39.262Z,8.10
2018-12-27T16:22:07.642Z,8.23
2018-12-27T16:24:36.041Z,8.80
2018-12-27T16:27:04.425Z,10.70
2018-12-27T16:29:32.845Z,12.63
2018-12-27T16:32:01.225Z,16.00
2018-12-27T16:34:29.630Z,17.07
2018-12-27T16:36:58.020Z,15.40
2018-12-27T16:39:26.401Z,16.60
2018-12-27T16:41:54.777Z,15.10
2018-12-27T16:44:23.194Z,15.20
2018-12-27T16:46:51.608Z,14.80
2018-12-27T16:49:20.109Z,12.70
2018-12-27T16:51:48.478Z,10.40
2018-12-27T16:54:16.806Z,10.27
2018-12-27T16:56:45.274Z,9.10
2018-12-27T16:59:13.691Z,9.20
2018-12-27T17:01:42.140Z,9.17
2018-12-27T17:04:10.542Z,9.20
2018-12-27T17:06:38.910Z,9.10
2018-12-27T17:09:07.319Z,9.50
2018-12-27T17:11:35.690Z,9.50
2018-12-27T17:14:04.159Z,9.67
2018-12-27T17:16:32.531Z,9.93
2018-12-27T17:19:00.906Z,9.33
2018-12-27T17:21:29.314Z,9.33
2018-12-27T17:23:57.610Z,10.17
2018-12-27T17:26:25.952Z,8.77
2018-12-27T17:28:54.404Z,8.97
2018-12-27T17:31:22.814Z,9.27
2018-12-27T17:33:51.480Z,9.30
2018-12-27T17:36:20.031Z,9.63
2018-12-27T17:38:48.427Z,10.00
2018-12-27T17:41:16.765Z,9.50
2018-12-27T17:43:45.126Z,9.40
2018-12-27T17:46:13.603Z,9.07
2018-12-27T17:48:41.970Z,8.97
2018-12-27T17:51:10.376Z,8.33
2018-12-27T17:53:38.810Z,8.03
2018-12-27T17:56:07.207Z,8.37
2018-12-27T17:58:35.582Z,8.03
2018-12-27T18:01:03.986Z,8.73
2018-12-27T18:03:32.286Z,8.57
2018-12-27T18:06:00.724Z,8.10
2018-12-27T18:08:29.168Z,7.93
2018-12-27T18:10:57.566Z,8.50
2018-12-27T18:13:25.930Z,8.80
2018-12-27T18:15:54.330Z,8.47
2018-12-27T18:18:22.704Z,8.10
2018-12-27T18:20:51.094Z,8.10
2018-12-27T18:23:19.462Z,8.03
2018-12-27T18:25:47.858Z,7.97
2018-12-27T18:28:16.302Z,8.00
2018-12-27T18:30:44.678Z,8.07
2018-12-27T18:33:13.783Z,8.77
2018-12-27T18:35:42.275Z,9.00
2018-12-27T18:38:10.670Z,8.87
2018-12-27T18:40:39.042Z,8.73
2018-12-27T18:43:07.494Z,9.27
2018-12-27T18:45:35.827Z,9.33
2018-12-27T18:48:04.235Z,9.80
2018-12-27T18:50:32.602Z,10.43
2018-12-27T18:53:00.936Z,9.03
2018-12-27T18:55:30.205Z,9.50
2018-12-27T18:57:58.703Z,8.63
2018-12-27T19:00:27.075Z,7.47
2018-12-27T19:02:55.466Z,7.80
2018-12-27T19:05:23.922Z,8.13
2018-12-27T19:07:52.326Z,7.97
2018-12-27T19:10:20.691Z,7.10
2018-12-27T19:13:04.441Z,7.40
2018-12-27T19:15:35.660Z,6.60
2018-12-27T19:18:07.170Z,6.37
2018-12-27T19:20:38.078Z,6.63
2018-12-27T19:23:12.223Z,6.53
2018-12-27T19:25:40.595Z,6.13
2018-12-27T19:28:08.998Z,6.90
2018-12-27T19:30:37.290Z,6.33
2018-12-27T19:33:05.659Z,7.00
2018-12-27T19:35:34.058Z,6.73
2018-12-27T19:38:02.426Z,7.17
2018-12-27T19:40:30.846Z,6.47
2018-12-27T19:42:59.210Z,6.33
2018-12-27T19:45:27.578Z,6.40
2018-12-27T19:47:56.066Z,5.80
2018-12-27T19:50:24.438Z,6.10
2018-12-27T19:52:52.846Z,7.00
2018-12-27T19:55:21.219Z,6.03
2018-12-27T19:57:49.635Z,6.13
2018-12-27T20:00:18.002Z,6.90
2018-12-27T20:02:46.436Z,7.40
2018-12-27T20:05:14.798Z,9.90
2018-12-27T20:07:43.100Z,10.30
2018-12-27T20:10:11.490Z,8.77
2018-12-27T20:12:39.925Z,8.40
2018-12-27T20:15:08.322Z,8.70
2018-12-27T20:17:36.691Z,7.60
2018-12-27T20:20:06.529Z,6.90
2018-12-27T20:22:34.898Z,6.73
2018-12-27T20:25:03.568Z,7.43
2018-12-27T20:27:31.932Z,7.27
2018-12-27T20:30:00.355Z,7.40
2018-12-27T20:32:28.721Z,7.50
2018-12-27T20:34:57.086Z,7.07
2018-12-27T20:37:25.499Z,7.33
2018-12-27T20:39:53.876Z,7.67
2018-12-27T20:42:22.338Z,7.73
2018-12-27T20:44:50.706Z,7.17
2018-12-27T20:47:19.121Z,7.37
2018-12-27T20:49:47.505Z,7.83
2018-12-27T20:52:15.906Z,7.40
2018-12-27T20:54:44.292Z,8.33
2018-12-27T20:57:12.658Z,8.90
2018-12-27T20:59:41.071Z,8.23
2018-12-27T21:02:09.539Z,8.00
2018-12-27T21:04:37.954Z,7.40
2018-12-27T21:07:06.325Z,7.47
2018-12-27T21:09:34.723Z,8.13
2018-12-27T21:12:03.094Z,8.13
2018-12-27T21:14:31.494Z,8.00
2018-12-27T21:16:59.886Z,7.97
2018-12-27T21:19:28.351Z,8.03
2018-12-27T21:21:56.741Z,7.93
2018-12-27T21:24:25.074Z,8.20
2018-12-27T21:26:53.455Z,9.13
2018-12-27T21:29:21.867Z,8.80
2018-12-27T21:31:50.226Z,8.63
2018-12-27T21:34:18.630Z,7.87
2018-12-27T21:36:47.001Z,8.63
2018-12-27T21:39:15.382Z,8.00
2018-12-27T21:41:43.781Z,8.00
2018-12-27T21:44:12.149Z,7.80
2018-12-27T21:46:40.490Z,7.87
2018-12-27T21:49:08.860Z,7.90
2018-12-27T21:51:37.252Z,8.17
2018-12-27T21:54:05.684Z,7.90
2018-12-27T21:56:34.175Z,7.87
2018-12-27T21:59:02.545Z,8.00
2018-12-27T22:01:30.939Z,7.80
2018-12-27T22:03:59.307Z,7.80
2018-12-27T22:06:27.653Z,8.60
2018-12-27T22:08:56.033Z,8.07
2018-12-27T22:11:24.433Z,8.80
2018-12-27T22:13:52.805Z,8.73
2018-12-27T22:16:21.225Z,8.23
2018-12-27T22:18:49.599Z,8.47
2018-12-27T22:21:17.999Z,8.43
2018-12-27T22:23:46.375Z,8.80
2018-12-27T22:26:14.781Z,8.57
2018-12-27T22:28:43.147Z,8.47
2018-12-27T22:31:11.472Z,8.80
2018-12-27T22:33:39.775Z,8.30
2018-12-27T22:36:08.177Z,8.40
2018-12-27T22:38:36.555Z,8.23
2018-12-27T22:41:04.955Z,8.83
2018-12-27T22:43:33.324Z,8.47
2018-12-27T22:46:01.616Z,8.47
2018-12-27T22:48:30.022Z,9.30
2018-12-27T22:50:58.419Z,8.97
2018-12-27T22:53:26.825Z,8.87
2018-12-27T22:55:55.727Z,8.53
2018-12-27T22:58:24.062Z,8.13
2018-12-27T23:00:52.499Z,8.27
2018-12-27T23:03:20.967Z,8.67
2018-12-27T23:05:49.676Z,8.30
2018-12-27T23:08:18.018Z,7.60
2018-12-27T23:10:46.393Z,8.60
2018-12-27T23:13:14.795Z,7.73
2018-12-27T23:15:43.170Z,8.30
2018-12-27T23:18:11.595Z,8.23
2018-12-27T23:20:39.966Z,8.90
2018-12-27T23:23:08.367Z,9.10
2018-12-27T23:25:36.737Z,8.67
2018-12-27T23:28:05.147Z,8.70
2018-12-27T23:30:33.505Z,8.97
2018-12-27T23:33:01.831Z,8.70
2018-12-27T23:35:30.217Z,8.40
2018-12-27T23:37:58.613Z,8.10
2018-12-27T23:40:26.975Z,7.17
2018-12-27T23:42:55.379Z,8.07
2018-12-27T23:45:23.745Z,7.63
2018-12-27T23:47:52.067Z,7.93
2018-12-27T23:50:20.483Z,7.50
2018-12-27T23:52:49.815Z,7.67
2018-12-27T23:55:18.263Z,7.63
2018-12-27T23:57:46.659Z,7.37
